Time;durP1;ratioP1;P1;durP2;ratioP2;P2;SDS_P1;SDS_P2;PMS_P1;PMS_P2;Temp;Humidity;BMP_temperature;BMP_pressure;BME280_temperature;BME280_humidity;BME280_pressure;Samples;Min_cycle;Max_cycle;Signal;HPM_P1;HPM_P2
2023/07/15 00:01:34;;;;;;;0.80;0.80;;;;;;;18.49;100.00;97693.69;1224547;75;2919844;-65
2023/07/15 00:04:07;;;;;;;1.00;0.90;;;;;;;18.46;100.00;97692.00;1224999;75;2920240;-66
2023/07/15 00:06:40;;;;;;;1.20;0.85;;;;;;;18.25;100.00;97694.59;1223852;75;2925045;-67
2023/07/15 00:09:15;;;;;;;1.35;1.05;;;;;;;18.29;100.00;97691.53;1224039;75;2927932;-68
2023/07/15 00:11:48;;;;;;;1.50;1.05;;;;;;;18.05;100.00;97689.63;1223832;75;2922939;-67
2023/07/15 00:14:25;;;;;;;1.80;1.05;;;;;;;18.05;100.00;97684.06;1224187;75;2924406;-67
2023/07/15 00:16:59;;;;;;;1.45;1.20;;;;;;;18.24;100.00;97686.81;1225022;75;2926599;-66
2023/07/15 00:19:33;;;;;;;1.00;0.95;;;;;;;18.28;100.00;97687.25;1224259;75;2922185;-64
2023/07/15 00:22:05;;;;;;;1.95;1.10;;;;;;;18.23;100.00;97688.84;1224459;75;2921743;-68
2023/07/15 00:24:41;;;;;;;0.90;0.90;;;;;;;18.15;100.00;97687.94;1224490;75;2921965;-67
2023/07/15 00:27:13;;;;;;;1.35;1.00;;;;;;;18.02;100.00;97682.34;1224356;75;2921249;-68
2023/07/15 00:29:46;;;;;;;1.35;0.70;;;;;;;18.04;100.00;97685.34;1224315;75;2925364;-67
2023/07/15 00:32:20;;;;;;;2.15;0.80;;;;;;;17.92;100.00;97684.00;1224755;75;2920117;-67
2023/07/15 00:34:52;;;;;;;1.15;0.80;;;;;;;18.01;100.00;97686.38;1224188;75;2923529;-68
2023/07/15 00:37:25;;;;;;;2.05;0.80;;;;;;;17.92;100.00;97675.69;1224337;75;2911115;-67
2023/07/15 00:40:00;;;;;;;2.85;0.90;;;;;;;17.70;100.00;97680.22;1224173;75;2923574;-67
2023/07/15 00:43:16;;;;;;;2.85;1.00;;;;;;;17.65;100.00;97681.06;1223482;75;2922546;-69
2023/07/15 00:46:33;;;;;;;2.20;1.30;;;;;;;17.56;100.00;97681.44;1223111;75;2928329;-65
2023/07/15 00:49:12;;;;;;;2.25;1.45;;;;;;;17.71;100.00;97673.44;1223838;75;2944616;-66
2023/07/15 00:51:48;;;;;;;1.85;1.20;;;;;;;17.82;100.00;97665.00;1224210;75;2924381;-65
2023/07/15 00:54:22;;;;;;;1.95;0.95;;;;;;;17.77;100.00;97671.31;1224070;75;2927296;-64
2023/07/15 00:56:55;;;;;;;1.60;0.90;;;;;;;17.71;100.00;97672.69;1223795;75;2921141;-67
2023/07/15 00:59:28;;;;;;;0.95;0.90;;;;;;;17.67;100.00;97678.50;1223600;75;2928559;-66
2023/07/15 01:02:04;;;;;;;2.15;1.30;;;;;;;17.51;100.00;97671.94;1223994;75;2923946;-65
2023/07/15 01:04:37;;;;;;;1.55;1.20;;;;;;;17.49;100.00;97668.19;1224176;75;2930245;-66
2023/07/15 01:07:10;;;;;;;1.30;1.20;;;;;;;17.39;100.00;97676.09;1223931;75;2925461;-68
2023/07/15 01:09:43;;;;;;;1.60;1.40;;;;;;;17.32;100.00;97663.63;1223992;75;2931328;-65
2023/07/15 01:12:16;;;;;;;1.65;1.30;;;;;;;17.34;100.00;97663.84;1223969;75;2922604;-65
2023/07/15 01:14:49;;;;;;;1.35;1.10;;;;;;;17.50;100.00;97655.84;1224362;75;2918813;-67
2023/07/15 01:17:24;;;;;;;2.10;1.00;;;;;;;17.56;100.00;97656.53;1223691;75;2930068;-67
2023/07/15 01:19:57;;;;;;;1.05;0.95;;;;;;;17.54;100.00;97656.31;1223909;75;2927052;-65
2023/07/15 01:22:30;;;;;;;1.15;0.80;;;;;;;17.44;100.00;97659.44;1222846;75;2923308;-68
2023/07/15 01:25:07;;;;;;;1.10;1.00;;;;;;;17.29;100.00;97655.59;1223593;75;2920980;-65
2023/07/15 01:27:39;;;;;;;2.40;1.00;;;;;;;17.30;100.00;97648.81;1223928;75;2920323;-68
2023/07/15 01:30:11;;;;;;;3.10;1.10;;;;;;;17.38;100.00;97650.44;1224200;75;2922881;-67
2023/07/15 01:32:43;;;;;;;0.80;0.80;;;;;;;17.39;100.00;97653.97;1223927;75;2922157;-66
2023/07/15 01:35:16;;;;;;;1.35;0.80;;;;;;;17.38;100.00;97655.25;1223590;75;2928774;-66
2023/07/15 01:37:49;;;;;;;1.20;0.80;;;;;;;17.34;100.00;97649.25;1224229;75;2921200;-65
2023/07/15 01:40:24;;;;;;;3.25;0.90;;;;;;;17.33;100.00;97654.03;1224443;75;2922337;-65
2023/07/15 01:42:57;;;;;;;1.10;0.90;;;;;;;17.34;100.00;97652.00;1224470;75;2923237;-66
2023/07/15 01:45:29;;;;;;;2.35;0.80;;;;;;;17.22;100.00;97660.47;1224058;75;2922232;-67
2023/07/15 01:48:04;;;;;;;1.10;1.00;;;;;;;17.12;100.00;97651.00;1224035;75;2926854;-66
2023/07/15 01:50:37;;;;;;;1.40;1.10;;;;;;;16.95;100.00;97651.19;1223977;75;2925771;-65
2023/07/15 01:53:10;;;;;;;1.05;0.95;;;;;;;17.09;100.00;97656.84;1224089;75;2921679;-65
2023/07/15 01:55:45;;;;;;;1.30;1.00;;;;;;;16.91;100.00;97659.06;1224073;75;2929002;-69
2023/07/15 01:58:18;;;;;;;2.95;1.20;;;;;;;17.05;100.00;97651.59;1223709;75;2924196;-65
2023/07/15 02:00:51;;;;;;;1.25;1.00;;;;;;;17.02;100.00;97655.41;1222893;75;2928235;-66
2023/07/15 02:03:23;;;;;;;1.40;0.90;;;;;;;16.87;100.00;97644.00;1223460;75;2928143;-67
2023/07/15 02:05:56;;;;;;;1.85;1.00;;;;;;;16.96;100.00;97652.72;1223812;75;2919314;-64
2023/07/15 02:08:28;;;;;;;1.40;0.85;;;;;;;16.80;100.00;97645.34;1223221;75;2936445;-67
2023/07/15 02:11:04;;;;;;;1.25;1.00;;;;;;;16.75;100.00;97646.13;1223933;75;2924667;-66
2023/07/15 02:13:36;;;;;;;1.35;1.15;;;;;;;16.78;100.00;97662.44;1224237;75;2931960;-65
2023/07/15 02:16:09;;;;;;;1.30;1.20;;;;;;;16.72;100.00;97658.97;1224365;75;2926333;-69
2023/07/15 02:18:42;;;;;;;1.40;1.30;;;;;;;16.68;100.00;97652.22;1224006;75;2924365;-67
2023/07/15 02:21:14;;;;;;;1.60;1.30;;;;;;;16.76;100.00;97648.38;1223806;75;2918402;-68
2023/07/15 02:23:47;;;;;;;1.15;1.00;;;;;;;16.83;100.00;97644.28;1224321;75;2925938;-65
2023/07/15 02:26:23;;;;;;;1.10;1.00;;;;;;;16.68;100.00;97647.44;1224346;75;2923284;-67
2023/07/15 02:28:55;;;;;;;1.65;1.05;;;;;;;16.75;100.00;97646.13;1224123;75;2939270;-67
2023/07/15 02:31:28;;;;;;;1.65;1.05;;;;;;;16.75;100.00;97654.41;1223578;75;2922288;-65
2023/07/15 02:34:00;;;;;;;1.00;0.85;;;;;;;16.73;100.00;97649.38;1223699;75;2920185;-69
2023/07/15 02:36:33;;;;;;;1.80;0.95;;;;;;;16.72;100.00;97650.66;1223517;75;2924180;-67
2023/07/15 02:39:07;;;;;;;1.60;1.00;;;;;;;16.71;100.00;97651.91;1224355;75;2932123;-67
2023/07/15 02:41:43;;;;;;;4.80;1.00;;;;;;;16.47;100.00;97644.34;1223890;75;2927933;-67
2023/07/15 02:44:15;;;;;;;1.10;1.00;;;;;;;16.44;100.00;97644.66;1223872;75;2933586;-64
2023/07/15 02:46:48;;;;;;;3.00;1.10;;;;;;;16.51;100.00;97646.84;1223974;75;2925823;-64
2023/07/15 02:49:23;;;;;;;1.90;1.10;;;;;;;16.32;100.00;97644.00;1224005;75;2929191;-66
2023/07/15 02:51:56;;;;;;;1.15;1.00;;;;;;;16.45;100.00;97641.38;1224131;75;2922211;-64
2023/07/15 02:54:28;;;;;;;1.20;1.10;;;;;;;16.40;100.00;97645.69;1224143;67;2920894;-66
2023/07/15 02:57:03;;;;;;;1.45;1.10;;;;;;;16.45;100.00;97649.66;1223433;75;2940197;-68
2023/07/15 02:59:36;;;;;;;1.45;1.15;;;;;;;16.36;100.00;97645.22;1224799;75;2918324;-66
2023/07/15 03:02:11;;;;;;;1.25;1.15;;;;;;;16.28;100.00;97640.75;1224159;75;2936400;-66
2023/07/15 03:04:44;;;;;;;1.80;1.40;;;;;;;16.36;100.00;97641.69;1224343;75;2919855;-64
2023/07/15 03:07:16;;;;;;;2.55;1.30;;;;;;;16.40;100.00;97637.41;1224081;75;2923394;-68
2023/07/15 03:09:49;;;;;;;1.35;1.05;;;;;;;16.29;100.00;97631.97;1223484;75;2924536;-65
2023/07/15 03:12:24;;;;;;;2.15;1.25;;;;;;;16.21;100.00;97633.78;1224738;75;2925684;-69
2023/07/15 03:14:57;;;;;;;1.20;1.10;;;;;;;16.38;100.00;97631.63;1224407;75;2925867;-65
2023/07/15 03:17:35;;;;;;;1.55;0.85;;;;;;;16.41;100.00;97629.84;1223586;75;2935400;-69
2023/07/15 03:20:14;;;;;;;1.20;1.10;;;;;;;16.22;100.00;97637.31;1224581;75;2926986;-65
2023/07/15 03:22:47;;;;;;;2.55;1.40;;;;;;;16.31;100.00;97634.97;1224215;75;2915648;-65
2023/07/15 03:25:21;;;;;;;1.25;1.00;;;;;;;16.36;100.00;97641.69;1224056;75;2922147;-64
2023/07/15 03:27:56;;;;;;;1.25;1.00;;;;;;;16.37;100.00;97634.91;1223955;75;2931962;-69
2023/07/15 03:30:29;;;;;;;1.40;1.00;;;;;;;16.44;100.00;97633.59;1223910;75;2923610;-67
2023/07/15 03:33:01;;;;;;;1.40;1.10;;;;;;;16.36;100.00;97636.19;1224241;75;2919991;-66
2023/07/15 03:35:34;;;;;;;0.70;0.70;;;;;;;16.39;100.00;97632.38;1223372;75;2990517;-67
2023/07/15 03:38:07;;;;;;;1.40;1.20;;;;;;;16.29;100.00;97631.97;1224302;75;2929375;-65
2023/07/15 03:40:40;;;;;;;1.80;1.35;;;;;;;16.19;100.00;97639.06;1223990;75;2930318;-67
2023/07/15 03:43:16;;;;;;;1.40;1.25;;;;;;;16.27;100.00;97637.25;1224303;75;2932203;-66
2023/07/15 03:45:51;;;;;;;1.10;1.00;;;;;;;16.36;100.00;97641.69;1223639;75;2916314;-68
2023/07/15 03:48:26;;;;;;;1.10;0.90;;;;;;;16.45;100.00;97637.84;1224286;75;2925635;-65
2023/07/15 03:50:58;;;;;;;1.30;1.20;;;;;;;16.26;100.00;97644.03;1224376;75;2919433;-67
2023/07/15 03:53:31;;;;;;;1.85;1.40;;;;;;;16.19;100.00;97645.34;1224483;75;2925283;-67
2023/07/15 03:56:04;;;;;;;1.10;1.00;;;;;;;16.33;100.00;97640.72;1224791;75;2924802;-64
2023/07/15 03:58:39;;;;;;;1.55;1.00;;;;;;;16.34;100.00;97653.25;1224028;75;2924319;-65
2023/07/15 04:01:11;;;;;;;2.40;1.30;;;;;;;16.38;100.00;97650.22;1224092;75;2923784;-65
2023/07/15 04:03:44;;;;;;;1.30;1.20;;;;;;;16.35;100.00;97640.94;1224584;75;2923489;-67
2023/07/15 04:06:17;;;;;;;1.30;1.20;;;;;;;16.49;100.00;97643.84;1224668;75;2920658;-66
2023/07/15 04:08:50;;;;;;;1.55;1.00;;;;;;;16.28;100.00;97649.03;1224153;75;2921147;-67
2023/07/15 04:11:22;;;;;;;1.35;1.25;;;;;;;16.34;100.00;97650.50;1224699;75;2924346;-64
2023/07/15 04:13:58;;;;;;;2.05;1.35;;;;;;;16.54;100.00;97656.84;1223950;75;2928901;-67
2023/07/15 04:16:31;;;;;;;2.25;1.40;;;;;;;16.44;100.00;97650.16;1224419;75;2925999;-65
2023/07/15 04:19:04;;;;;;;1.60;1.45;;;;;;;16.38;100.00;97650.97;1224949;75;2931573;-67
2023/07/15 04:21:36;;;;;;;1.85;1.55;;;;;;;16.45;100.00;97654.41;1224224;75;2925487;-66
2023/07/15 04:24:09;;;;;;;2.05;1.50;;;;;;;16.45;100.00;97648.91;1223910;75;2922113;-67
2023/07/15 04:26:43;;;;;;;2.55;1.55;;;;;;;16.52;100.00;97653.84;1223994;75;2920017;-67
2023/07/15 04:29:18;;;;;;;1.60;1.50;;;;;;;16.59;100.00;97650.53;1224309;75;2920351;-64
2023/07/15 04:31:50;;;;;;;1.90;1.70;;;;;;;16.76;100.00;97658.66;1224326;75;2921577;-65
2023/07/15 04:34:23;;;;;;;2.25;1.30;;;;;;;16.82;100.00;97659.38;1224757;75;2918392;-66
2023/07/15 04:36:56;;;;;;;5.15;2.15;;;;;;;16.69;100.00;97660.00;1223780;75;2925731;-65
2023/07/15 04:39:28;;;;;;;2.85;2.20;;;;;;;16.84;100.00;97662.38;1223700;75;2925343;-68
2023/07/15 04:42:01;;;;;;;2.85;1.75;;;;;;;16.92;100.00;97660.53;1223452;75;2936994;-66
2023/07/15 04:44:36;;;;;;;2.40;2.00;;;;;;;16.91;100.00;97666.56;1223348;83;2921486;-68
2023/07/15 04:47:09;;;;;;;2.85;2.35;;;;;;;16.90;100.00;97665.09;1223948;75;2927320;-68
2023/07/15 04:49:42;;;;;;;3.05;1.85;;;;;;;17.03;100.00;97681.81;1224490;75;2928173;-68
2023/07/15 04:52:14;;;;;;;2.30;1.80;;;;;;;17.15;100.00;97685.94;1223869;75;2924744;-64
2023/07/15 04:54:47;;;;;;;4.35;2.70;;;;;;;17.09;100.00;97690.03;1222149;75;2947261;-66
2023/07/15 04:57:20;;;;;;;2.50;2.30;;;;;;;17.14;100.00;97689.22;1223776;75;2927349;-66
2023/07/15 04:59:56;;;;;;;2.90;2.10;;;;;;;17.23;100.00;97686.84;1223890;75;2925009;-65
2023/07/15 05:02:28;;;;;;;3.90;2.60;;;;;;;17.07;100.00;97687.78;1223429;75;2925250;-68
2023/07/15 05:05:01;;;;;;;3.85;3.35;;;;;;;17.06;100.00;97694.59;1223733;75;2923121;-66
2023/07/15 05:07:33;;;;;;;3.95;2.60;;;;;;;17.19;100.00;97691.19;1224649;75;2928515;-68
2023/07/15 05:10:07;;;;;;;4.35;3.00;;;;;;;17.14;100.00;97697.53;1224401;75;2926796;-68
2023/07/15 05:12:39;;;;;;;3.60;2.45;;;;;;;17.38;100.00;97686.41;1223550;75;2924525;-63
2023/07/15 05:15:15;;;;;;;5.00;2.70;;;;;;;17.46;100.00;97692.88;1223889;75;2924782;-65
2023/07/15 05:17:48;;;;;;;2.75;2.40;;;;;;;17.60;100.00;97690.94;1223926;75;2918750;-65
2023/07/15 05:20:21;;;;;;;2.55;2.00;;;;;;;17.67;100.00;97689.59;1223798;75;2927026;-65
2023/07/15 05:22:54;;;;;;;2.40;2.15;;;;;;;17.75;100.00;97693.28;1224582;75;2925422;-65
2023/07/15 05:25:27;;;;;;;2.60;1.95;;;;;;;17.88;100.00;97698.91;1223875;75;2918339;-67
2023/07/15 05:27:59;;;;;;;3.00;2.50;;;;;;;17.85;100.00;97694.41;1223530;75;2925352;-66
2023/07/15 05:30:37;;;;;;;4.25;2.30;;;;;;;18.05;100.00;97695.16;1223930;75;2928502;-68
2023/07/15 05:33:10;;;;;;;2.30;2.10;;;;;;;18.07;100.00;97706.47;1224157;75;2920652;-67
2023/07/15 05:35:42;;;;;;;2.50;2.25;;;;;;;18.16;100.00;97695.00;1223955;75;2925483;-69
2023/07/15 05:38:15;;;;;;;3.70;2.30;;;;;;;18.21;100.00;97702.47;1224288;75;2926847;-68
2023/07/15 05:40:48;;;;;;;3.80;2.45;;;;;;;18.35;100.00;97699.72;1224384;75;2925588;-66
2023/07/15 05:43:21;;;;;;;4.35;2.65;;;;;;;18.56;100.00;97697.88;1223679;75;2921541;-69
2023/07/15 05:45:56;;;;;;;3.15;2.45;;;;;;;18.58;100.00;97694.59;1224570;75;2923727;-66
2023/07/15 05:48:29;;;;;;;3.25;2.55;;;;;;;18.48;100.00;97695.00;1224622;75;2892243;-66
2023/07/15 05:51:01;;;;;;;3.20;2.90;;;;;;;18.62;100.00;97693.00;1223773;75;2928137;-68
2023/07/15 05:53:34;;;;;;;3.15;2.60;;;;;;;18.93;100.00;97696.28;1224710;75;2920755;-67
2023/07/15 05:56:07;;;;;;;3.40;2.85;;;;;;;19.08;100.00;97698.53;1224366;75;2942855;-67
2023/07/15 05:58:40;;;;;;;3.30;2.65;;;;;;;19.10;100.00;97699.50;1223272;75;2926227;-66
2023/07/15 06:01:15;;;;;;;2.90;2.60;;;;;;;19.30;100.00;97698.09;1223660;75;2930607;-67
2023/07/15 06:03:48;;;;;;;3.45;2.40;;;;;;;19.26;100.00;97696.94;1205438;75;4237268;-67
2023/07/15 06:06:20;;;;;;;3.70;3.05;;;;;;;19.33;100.00;97693.50;1223505;75;2926761;-70
2023/07/15 06:08:53;;;;;;;4.30;3.45;;;;;;;19.31;100.00;97693.28;1223909;75;2921529;-68
2023/07/15 06:11:25;;;;;;;4.10;3.30;;;;;;;19.43;100.00;97694.56;1223927;75;2926106;-67
2023/07/15 06:14:00;;;;;;;3.95;3.10;;;;;;;19.66;100.00;97697.63;1224169;75;2920072;-68
2023/07/15 06:16:35;;;;;;;4.90;3.40;;;;;;;19.90;100.00;97693.13;1223457;75;2922732;-68
2023/07/15 06:19:08;;;;;;;3.95;3.30;;;;;;;19.99;100.00;97692.69;1223509;75;2922633;-68
2023/07/15 06:21:40;;;;;;;7.55;3.70;;;;;;;19.77;100.00;97697.44;1223174;75;2927310;-67
2023/07/15 06:24:13;;;;;;;3.45;2.75;;;;;;;20.22;100.00;97690.84;1223380;75;2924381;-66
2023/07/15 06:26:46;;;;;;;3.55;3.00;;;;;;;20.44;100.00;97691.63;1224001;75;2928785;-66
2023/07/15 06:29:19;;;;;;;4.65;3.35;;;;;;;20.40;100.00;97694.75;1223737;67;2921375;-66
2023/07/15 06:31:54;;;;;;;5.45;3.35;;;;;;;20.27;100.00;97700.34;1224340;75;2923998;-66
2023/07/15 06:34:26;;;;;;;5.65;3.40;;;;;;;20.43;100.00;97690.88;1224462;75;2929745;-69
2023/07/15 06:36:59;;;;;;;4.20;3.35;;;;;;;20.57;100.00;97691.59;1222740;75;2926193;-66
2023/07/15 06:39:32;;;;;;;4.95;3.75;;;;;;;20.72;100.00;97693.00;1223857;75;2924679;-66
2023/07/15 06:42:04;;;;;;;3.15;2.65;;;;;;;20.97;100.00;97694.13;1224110;75;2916818;-67
2023/07/15 06:44:37;;;;;;;2.75;2.40;;;;;;;21.19;100.00;97697.56;1223764;75;2919439;-67
2023/07/15 06:47:12;;;;;;;2.40;2.10;;;;;;;21.40;100.00;97687.13;1223250;75;2926370;-66
2023/07/15 06:49:45;;;;;;;5.45;3.10;;;;;;;21.24;100.00;97691.13;1223748;75;2928156;-67
2023/07/15 06:52:17;;;;;;;4.20;2.90;;;;;;;21.54;100.00;97690.56;1223598;75;2918298;-65
2023/07/15 06:54:50;;;;;;;4.10;3.15;;;;;;;21.59;100.00;97686.13;1223493;75;2921550;-67
2023/07/15 06:57:22;;;;;;;4.50;3.45;;;;;;;21.78;100.00;97683.78;1223963;75;2927133;-69
2023/07/15 06:59:55;;;;;;;4.15;3.50;;;;;;;21.77;100.00;97681.53;1223852;75;2931366;-69
2023/07/15 07:02:31;;;;;;;5.50;2.80;;;;;;;22.00;100.00;97678.81;1224585;75;2927796;-69
2023/07/15 07:05:03;;;;;;;3.90;2.95;;;;;;;22.09;100.00;97675.50;1223829;75;2960041;-68
2023/07/15 07:07:36;;;;;;;4.05;2.60;;;;;;;22.20;100.00;97677.19;1223786;75;2922423;-67
2023/07/15 07:10:10;;;;;;;7.45;3.35;;;;;;;22.16;100.00;97671.25;1223552;75;2922471;-69
2023/07/15 07:12:43;;;;;;;5.10;3.00;;;;;;;22.23;100.00;97676.13;1222993;75;2928950;-67
2023/07/15 07:15:16;;;;;;;4.95;3.35;;;;;;;22.41;100.00;97672.22;1224064;75;2918509;-66
2023/07/15 07:17:51;;;;;;;7.55;3.20;;;;;;;22.58;100.00;97674.44;1223688;75;2923214;-67
2023/07/15 07:20:24;;;;;;;5.90;3.00;;;;;;;22.63;99.17;97664.41;1224614;75;2927315;-68
2023/07/15 07:22:56;;;;;;;5.75;3.10;;;;;;;22.68;98.61;97658.66;1224108;75;2923357;-65
2023/07/15 07:25:29;;;;;;;3.45;2.65;;;;;;;23.00;97.58;97662.91;1223646;75;2925036;-68
2023/07/15 07:28:02;;;;;;;3.95;3.20;;;;;;;23.20;99.06;97660.47;1223530;75;2916933;-66
2023/07/15 07:30:34;;;;;;;3.00;2.40;;;;;;;23.46;93.44;97665.59;1224245;75;2918332;-68
2023/07/15 07:33:10;;;;;;;4.35;3.05;;;;;;;23.31;95.32;97662.84;1224114;75;2927131;-69
2023/07/15 07:35:42;;;;;;;3.75;2.25;;;;;;;23.57;93.08;97665.19;1224075;75;2945580;-69
2023/07/15 07:38:15;;;;;;;3.25;2.60;;;;;;;23.67;92.55;97658.97;1223652;75;2925550;-68
2023/07/15 07:40:49;;;;;;;3.60;2.65;;;;;;;23.67;89.27;97653.38;1224637;75;2927406;-66
2023/07/15 07:43:21;;;;;;;4.75;2.80;;;;;;;23.81;88.79;97658.19;1224419;75;2920214;-69
2023/07/15 07:45:54;;;;;;;3.90;2.95;;;;;;;23.63;89.25;97653.78;1225141;75;2929732;-67
2023/07/15 07:48:29;;;;;;;3.95;2.20;;;;;;;24.18;86.62;97652.94;1224769;75;2924172;-67
2023/07/15 07:51:02;;;;;;;5.15;3.00;;;;;;;24.17;87.93;97654.25;1224154;75;2938425;-69
2023/07/15 07:53:35;;;;;;;3.45;2.75;;;;;;;24.06;89.29;97651.16;1225021;75;2920479;-66
2023/07/15 07:56:11;;;;;;;3.05;2.45;;;;;;;24.29;85.46;97653.78;1224160;75;2924461;-65
2023/07/15 07:58:43;;;;;;;4.80;2.60;;;;;;;24.38;88.63;97655.97;1223931;75;2927823;-67
2023/07/15 08:01:16;;;;;;;6.10;2.90;;;;;;;24.40;83.75;97656.13;1224137;75;2928085;-68
2023/07/15 08:03:51;;;;;;;4.50;3.10;;;;;;;24.47;84.17;97660.97;1223477;75;2926027;-69
2023/07/15 08:06:24;;;;;;;5.15;3.20;;;;;;;24.27;86.22;97659.22;1225005;75;2920727;-66
2023/07/15 08:08:57;;;;;;;5.10;2.75;;;;;;;24.48;86.16;97665.25;1224350;75;2928189;-67
2023/07/15 08:11:30;;;;;;;4.10;3.20;;;;;;;24.69;85.28;97659.28;1223693;75;2917241;-68
2023/07/15 08:14:02;;;;;;;4.70;3.50;;;;;;;24.85;83.44;97660.63;1223478;75;2928786;-67
2023/07/15 08:16:37;;;;;;;3.80;2.90;;;;;;;25.14;84.88;97671.38;1224325;75;2921723;-68
2023/07/15 08:19:12;;;;;;;4.40;2.65;;;;;;;25.15;85.70;97660.91;1223946;75;2932873;-66
2023/07/15 08:21:45;;;;;;;4.15;2.90;;;;;;;25.24;83.59;97665.88;1224148;75;2938035;-66
2023/07/15 08:24:18;;;;;;;3.55;2.25;;;;;;;25.62;82.02;97667.50;1224233;75;2921325;-69
2023/07/15 08:26:51;;;;;;;4.05;2.55;;;;;;;25.77;81.97;97667.31;1221811;75;2943034;-68
2023/07/15 08:29:23;;;;;;;3.20;2.40;;;;;;;25.26;79.87;97668.84;1223701;75;2920303;-67
2023/07/15 08:31:56;;;;;;;4.35;2.40;;;;;;;25.34;80.99;97672.31;1224432;75;2931672;-68
2023/07/15 08:34:31;;;;;;;3.70;3.05;;;;;;;25.53;79.32;97665.38;1224134;75;2928472;-66
2023/07/15 08:37:03;;;;;;;3.05;2.45;;;;;;;25.77;76.82;97661.69;1224177;75;2919068;-67
2023/07/15 08:39:36;;;;;;;2.90;2.40;;;;;;;25.78;77.39;97676.44;1224130;75;2940245;-65
2023/07/15 08:42:09;;;;;;;3.05;2.60;;;;;;;25.64;79.46;97670.44;1224961;75;2880706;-67
2023/07/15 08:44:42;;;;;;;3.75;2.65;;;;;;;25.87;76.23;97670.94;1223942;75;2921465;-67
2023/07/15 08:47:21;;;;;;;2.75;1.95;;;;;;;26.39;74.73;97670.00;1224362;75;2917205;-66
2023/07/15 08:49:58;;;;;;;3.15;2.10;;;;;;;26.62;74.88;97666.84;1224038;75;2938708;-67
2023/07/15 08:52:32;;;;;;;3.30;2.10;;;;;;;26.23;71.66;97682.78;1223906;75;2917374;-68
2023/07/15 08:55:06;;;;;;;3.65;2.45;;;;;;;26.35;70.00;97670.44;1224258;75;2936885;-67
2023/07/15 08:57:39;;;;;;;2.25;2.00;;;;;;;26.87;69.13;97661.00;1224362;75;2925601;-68
2023/07/15 09:00:15;;;;;;;2.20;2.00;;;;;;;27.21;68.79;97662.13;1224926;75;2926467;-67
2023/07/15 09:02:47;;;;;;;2.90;2.30;;;;;;;26.89;69.18;97666.78;1223132;75;2923964;-68
2023/07/15 09:05:23;;;;;;;3.60;2.40;;;;;;;26.85;70.60;97663.66;1224438;75;2930542;-68
2023/07/15 09:08:00;;;;;;;2.50;2.20;;;;;;;26.94;67.50;97662.94;1224423;75;2920264;-69
2023/07/15 09:10:33;;;;;;;3.40;2.20;;;;;;;26.79;67.11;97663.19;1224587;75;2922847;-69
2023/07/15 09:13:06;;;;;;;3.55;2.45;;;;;;;27.02;64.29;97662.81;1224049;75;2925678;-68
2023/07/15 09:15:39;;;;;;;3.65;2.00;;;;;;;27.51;65.00;97654.41;1220635;75;2961584;-66
2023/07/15 09:18:12;;;;;;;3.45;2.30;;;;;;;27.47;63.39;97662.53;1224022;75;2918613;-68
2023/07/15 09:20:48;;;;;;;2.90;2.20;;;;;;;28.06;61.99;97651.94;1224445;75;2924262;-69
2023/07/15 09:23:21;;;;;;;3.60;2.00;;;;;;;27.95;63.13;97653.31;1223791;75;2921203;-68
2023/07/15 09:25:56;;;;;;;2.95;2.00;;;;;;;28.42;60.65;97656.56;1223725;75;2924046;-67
2023/07/15 09:28:29;;;;;;;3.15;2.05;;;;;;;28.61;60.20;97653.66;1224195;75;2925577;-68
2023/07/15 09:31:03;;;;;;;2.75;2.00;;;;;;;28.13;62.37;97656.66;1223922;75;2924307;-68
2023/07/15 09:33:39;;;;;;;3.25;2.30;;;;;;;28.39;61.38;97654.94;1224573;75;2920224;-69
2023/07/15 09:36:16;;;;;;;3.95;2.20;;;;;;;27.84;61.48;97643.41;1223619;75;2921461;-67
2023/07/15 09:38:48;;;;;;;4.85;2.00;;;;;;;28.25;62.39;97658.25;1224337;75;2923437;-68
2023/07/15 09:41:23;;;;;;;1.85;1.50;;;;;;;28.30;60.74;97653.63;1223796;75;2927215;-69
2023/07/15 09:43:56;;;;;;;1.70;1.55;;;;;;;28.60;61.62;97654.25;1224575;75;2918625;-67
2023/07/15 09:46:30;;;;;;;4.00;2.20;;;;;;;28.39;60.92;97647.22;1223878;75;2921968;-69
2023/07/15 09:49:03;;;;;;;4.10;2.00;;;;;;;28.29;59.86;97649.34;1224265;75;2921714;-68
2023/07/15 09:51:38;;;;;;;3.70;2.05;;;;;;;28.38;60.21;97645.75;1224027;75;2921683;-69
2023/07/15 09:54:12;;;;;;;2.60;1.70;;;;;;;28.58;61.26;97648.50;1223102;75;2925743;-67
2023/07/15 09:56:49;;;;;;;2.55;1.90;;;;;;;29.15;60.61;97638.19;1223823;75;2930455;-68
2023/07/15 09:59:24;;;;;;;3.90;2.10;;;;;;;28.65;60.20;97641.94;1222719;75;2923829;-66
2023/07/15 10:02:07;;;;;;;2.85;1.75;;;;;;;29.30;59.14;97643.44;1224102;75;2927095;-67
2023/07/15 10:04:46;;;;;;;3.90;2.10;;;;;;;28.87;60.82;97640.59;1223504;75;2924365;-67
2023/07/15 10:07:23;;;;;;;2.50;1.75;;;;;;;29.00;61.35;97647.03;1223571;75;2942109;-70
2023/07/15 10:09:56;;;;;;;1.90;1.60;;;;;;;29.41;59.84;97649.72;1223249;75;2920046;-69
2023/07/15 10:12:29;;;;;;;2.10;1.85;;;;;;;29.18;61.23;97653.94;1222709;75;2924252;-67
2023/07/15 10:15:02;;;;;;;6.00;2.55;;;;;;;29.22;59.44;97654.16;1223595;75;2921635;-69
2023/07/15 10:17:39;;;;;;;3.80;2.25;;;;;;;29.37;60.34;97650.22;1224013;75;2926734;-70
2023/07/15 10:20:14;;;;;;;3.05;1.90;;;;;;;29.91;61.26;97648.66;1223797;75;2932410;-69
2023/07/15 10:22:49;;;;;;;2.65;2.00;;;;;;;30.14;59.71;97651.53;1223576;75;2920875;-70
2023/07/15 10:25:23;;;;;;;3.90;1.60;;;;;;;30.32;58.09;97656.84;1221653;75;2951624;-68
2023/07/15 10:28:14;;;;;;;2.30;1.90;;;;;;;30.01;58.82;97652.13;1221949;75;2969862;-70
2023/07/15 10:31:09;;;;;;;5.55;1.90;;;;;;;30.17;58.68;97654.47;1222072;75;2929544;-69
2023/07/15 10:33:57;;;;;;;3.20;1.90;;;;;;;29.38;61.90;97657.31;1224212;75;2905299;-68
2023/07/15 10:36:47;;;;;;;2.30;1.70;;;;;;;29.87;61.14;97651.22;1223372;75;2927891;-69
2023/07/15 10:39:26;;;;;;;2.50;1.80;;;;;;;30.20;60.53;97647.59;1223384;75;2920236;-69
2023/07/15 10:41:58;;;;;;;3.00;1.60;;;;;;;30.35;59.43;97644.31;1223721;75;2918966;-69
2023/07/15 10:44:41;;;;;;;3.55;1.90;;;;;;;29.92;60.78;97655.78;1223908;75;2921268;-70
2023/07/15 10:47:15;;;;;;;2.40;1.95;;;;;;;30.15;61.76;97646.63;1224375;75;2915514;-67
2023/07/15 10:49:48;;;;;;;2.10;1.65;;;;;;;30.22;60.23;97640.00;1224028;75;2924812;-69
2023/07/15 10:52:23;;;;;;;3.10;1.70;;;;;;;29.98;60.12;97638.50;1223621;75;2921847;-69
2023/07/15 10:54:58;;;;;;;3.65;1.80;;;;;;;30.75;56.38;97640.34;1223633;75;2921599;-66
2023/07/15 10:57:31;;;;;;;1.95;1.55;;;;;;;30.62;56.43;97641.00;1224544;75;2930817;-67
2023/07/15 11:00:12;;;;;;;5.05;1.75;;;;;;;30.83;54.03;97645.78;1224546;75;2919133;-71
2023/07/15 11:02:44;;;;;;;1.85;1.65;;;;;;;30.54;53.66;97649.72;1224057;75;2929211;-70
2023/07/15 11:05:17;;;;;;;1.80;1.55;;;;;;;30.66;52.80;97649.69;1223670;75;2920535;-71
2023/07/15 11:07:50;;;;;;;4.10;1.85;;;;;;;31.07;52.57;97635.13;1223944;75;2920658;-69
2023/07/15 11:10:36;;;;;;;1.50;1.30;;;;;;;32.15;52.02;97626.25;1224383;75;2919025;-70
2023/07/15 11:13:16;;;;;;;2.55;1.70;;;;;;;32.00;51.60;97621.22;1224008;75;2918655;-68
2023/07/15 11:15:49;;;;;;;1.85;1.50;;;;;;;32.06;51.19;97624.34;1224154;75;2918517;-68
2023/07/15 11:18:24;;;;;;;1.70;1.40;;;;;;;31.91;51.66;97633.41;1224084;75;2924347;-70
2023/07/15 11:21:03;;;;;;;1.95;1.50;;;;;;;32.65;51.01;97624.63;1224552;67;2923822;-69
2023/07/15 11:23:36;;;;;;;2.05;1.70;;;;;;;32.39;50.85;97620.41;1224541;75;2921035;-68
2023/07/15 11:26:14;;;;;;;2.50;1.70;;;;;;;32.04;51.01;97630.66;1223577;75;2921755;-69
2023/07/15 11:28:52;;;;;;;1.95;1.60;;;;;;;32.28;50.66;97621.97;1224009;75;2930843;-68
2023/07/15 11:31:26;;;;;;;1.90;1.50;;;;;;;32.15;50.23;97623.41;1223424;75;2933751;-69
2023/07/15 11:34:02;;;;;;;2.15;1.60;;;;;;;32.07;50.53;97617.34;1224075;75;2924878;-70
2023/07/15 11:36:35;;;;;;;2.10;1.40;;;;;;;32.10;52.77;97616.06;1225064;75;2920350;-69
2023/07/15 11:39:08;;;;;;;3.70;1.70;;;;;;;31.48;52.74;97617.66;1223927;75;2919684;-70
2023/07/15 11:41:43;;;;;;;2.00;1.60;;;;;;;31.74;51.40;97612.72;1223375;75;2965767;-68
2023/07/15 11:44:18;;;;;;;3.00;1.60;;;;;;;31.83;51.04;97608.25;1224143;75;2925753;-70